Flight Track Log - Related Links

Times and Time Zones

All times are in EDT time to prevent confusion due to time zone crossing. See the DAL872 flight status page for this flight to view local times or setup timezone preferences in your user account.

Time Position Orientation Groundspeed Altitude Reporting Facility
EDT Latitude Longitude Course Direction KTS MPH feet Rate Location/Type
Sun 07:18:00 AM 38.8000 -77.0333 236° Southwest 167 192 1,600  Level Potomac TRACON
Sun 07:19:00 AM 38.7667 -77.0667 218° Southwest 236 272 3,100 2,150 Climbing Potomac TRACON
Sun 07:20:00 AM 38.6549 -77.3999 234° Southwest  Level FlightAware Approximate
Sun 07:20:00 AM 38.7500 -77.1500 256° West 256 295 5,900  Level Potomac TRACON
Sun 07:20:54 AM 38.7167 -77.2333 243° Southwest 268 308 8,400 2,526 Climbing Potomac TRACON
Sun 07:21:00 AM 38.5962 -77.5281 247° West  Level FlightAware Approximate
Sun 07:21:54 AM 38.6833 -77.3167 243° Southwest 280 322 10,700  Level Potomac TRACON
Sun 07:22:00 AM 38.5365 -77.6558 233° Southwest  Level FlightAware Approximate
Sun 07:23:00 AM 38.4641 -77.7717 236° Southwest  Level FlightAware Approximate
Sun 07:23:38 AM 38.6000 -77.5069 241° Southwest 349 402 13,400  Level Washington Center
Sun 07:24:39 AM 38.5500 -77.6278 242° Southwest 368 423 15,800 2,083 Climbing Washington Center
Sun 07:25:39 AM 38.5022 -77.7353 240° Southwest 384 442 17,600 1,785 Climbing Washington Center
Sun 07:26:40 AM 38.4397 -77.8581 237° Southwest 399 459 19,400 1,800 Climbing Washington Center
Sun 07:27:39 AM 38.3747 -77.9833 237° Southwest 413 475 21,200 1,700 Climbing Washington Center
Sun 07:28:40 AM 38.3053 -78.1106 235° Southwest 425 489 22,800 1,438 Climbing Washington Center
Sun 07:29:40 AM 38.2358 -78.2431 236° Southwest 444 511 24,100 1,664 Climbing Washington Center
Sun 07:30:39 AM 38.1639 -78.3778 236° Southwest 459 528 26,100 2,168 Climbing Washington Center
Sun 07:31:39 AM 38.1044 -78.5131 241° Southwest 452 520 28,400 1,636 Climbing Washington Center
Sun 07:32:40 AM 38.0464 -78.6636 244° Southwest 437 503 29,400 900 Climbing Washington Center
Sun 07:33:39 AM 37.9617 -78.7892 229° Southwest 450 518 30,200 1,160 Climbing Washington Center
Sun 07:34:39 AM 37.8792 -78.9147 230° Southwest 468 539 31,700 1,400 Climbing Washington Center
Sun 07:35:39 AM 37.7964 -79.0397 230° Southwest 478 550 33,000 1,240 Climbing Washington Center
Sun 07:36:40 AM 37.7133 -79.1647 230° Southwest 472 543 34,200 992 Climbing Washington Center
Sun 07:37:40 AM 37.6103 -79.2594 216° Southwest 466 536 35,000 595 Climbing Washington Center
Sun 07:38:41 AM 37.5011 -79.3536 214° Southwest 472 543 35,400 712 Climbing Washington Center
Sun 07:39:38 AM 37.3817 -79.4392 210° Southwest 490 564 36,400 908 Climbing Washington Center
Sun 07:40:40 AM 37.2819 -79.5464 221° Southwest 490 564 37,200 720 Climbing Washington Center
Sun 07:41:43 AM 37.2047 -79.6781 234° Southwest 474 545 37,900 296 Climbing Washington Center
Sun 07:43:22 AM 37.0767 -79.8869 233° Southwest 474 545 38,000 38 Climbing Atlanta Center
Sun 07:44:22 AM 36.9975 -80.0158 232° Southwest 474 545 38,000  Level Atlanta Center
Sun 07:45:22 AM 36.9183 -80.1444 232° Southwest 474 545 38,000  Level Atlanta Center
Sun 07:46:22 AM 36.8367 -80.2731 232° Southwest 474 545 38,000  Level Atlanta Center
Sun 07:47:22 AM 36.7572 -80.4011 232° Southwest 480 552 38,000  Level Atlanta Center
Sun 07:48:22 AM 36.6775 -80.5314 233° Southwest 480 552 38,000 -500 Level Atlanta Center
Sun 07:49:22 AM 36.5939 -80.6722 234° Southwest 467 537 37,000 -500 Descending Atlanta Center
Sun 07:50:22 AM 36.5139 -80.7994 232° Southwest 467 537 37,000  Level Atlanta Center
Sun 07:51:22 AM 36.4358 -80.9242 232° Southwest 467 537 37,000  Level Atlanta Center
Sun 07:52:22 AM 36.3558 -81.0561 233° Southwest 467 537 37,000  Level Atlanta Center
Sun 07:53:22 AM 36.2753 -81.1825 232° Southwest 467 537 37,000  Level Atlanta Center
Sun 07:54:22 AM 36.1947 -81.3089 232° Southwest 472 543 37,000  Level Atlanta Center
Sun 07:55:22 AM 36.1119 -81.4378 232° Southwest 472 543 37,000 -100 Level Atlanta Center
Sun 07:56:22 AM 36.0311 -81.5636 232° Southwest 472 543 36,800 -500 Descending Atlanta Center
Sun 07:57:22 AM 35.9503 -81.6917 232° Southwest 472 543 36,000 -400 Descending Atlanta Center
Sun 07:58:22 AM 35.8692 -81.8197 232° Southwest 479 551 36,000  Level Atlanta Center
Sun 07:59:22 AM 35.7858 -81.9397 229° Southwest 479 551 36,000  Level Atlanta Center
Sun 08:00:22 AM 35.6897 -82.0597 225° Southwest 473 544 36,000  Level Atlanta Center
Sun 08:01:22 AM 35.6019 -82.1717 226° Southwest 473 544 36,000  Level Atlanta Center
Sun 08:02:22 AM 35.5117 -82.2858 226° Southwest 468 539 36,000  Level Atlanta Center
Sun 08:03:22 AM 35.4194 -82.4025 226° Southwest 468 539 36,000 -350 Level Atlanta Center
Sun 08:04:22 AM 35.3353 -82.5111 226° Southwest 477 549 35,300 -500 Descending Atlanta Center
Sun 08:05:22 AM 35.2344 -82.6325 225° Southwest 477 549 35,000 -600 Descending Atlanta Center
Sun 08:06:22 AM 35.1356 -82.7383 221° Southwest 477 549 34,100 -950 Descending Atlanta Center
Sun 08:07:22 AM 35.0364 -82.8439 221° Southwest 477 549 33,100 -1,300 Descending Atlanta Center
Sun 08:08:22 AM 34.9372 -82.9519 222° Southwest 477 549 31,500 -1,750 Descending Atlanta Center
Sun 08:09:22 AM 34.8419 -83.0417 218° Southwest 482 555 29,600 -2,050 Descending Atlanta Center
Sun 08:10:22 AM 34.7531 -83.1464 224° Southwest 470 541 27,400 -2,150 Descending Atlanta Center
Sun 08:11:22 AM 34.6600 -83.2408 220° Southwest 457 526 25,300 -2,150 Descending Atlanta Center
Sun 08:12:22 AM 34.5708 -83.3400 222° Southwest 445 512 23,100 -2,200 Descending Atlanta Center
Sun 08:13:22 AM 34.4794 -83.4339 220° Southwest 445 512 20,900 -2,150 Descending Atlanta Center
Sun 08:14:22 AM 34.3964 -83.5228 221° Southwest 428 493 18,800 -2,000 Descending Atlanta Center
Sun 08:15:22 AM 34.3172 -83.6036 220° Southwest 400 460 16,900 -2,000 Descending Atlanta Center
Sun 08:16:22 AM 34.2403 -83.6844 221° Southwest 378 435 14,800 -2,000 Descending Atlanta Center
Sun 08:17:22 AM 34.1656 -83.7628 221° Southwest 372 428 12,900 -1,400 Descending Atlanta Center
Sun 08:18:22 AM 34.0947 -83.8381 221° Southwest 358 412 12,000 -1,010 Descending Atlanta Center
Sun 08:19:03 AM 34.0500 -83.8833 220° Southwest 310 357 11,200 -1,485 Descending Atlanta TRACON
Sun 08:20:03 AM 33.9833 -83.9667 226° Southwest 289 333 9,500 -1,100 Descending Atlanta TRACON
Sun 08:21:03 AM 33.9000 -83.9667 180° South 294 338 9,000 -333 Descending Atlanta TRACON
Sun 08:22:09 AM 33.8167 -83.9667 180° South 295 339 8,800 -561 Descending Atlanta TRACON
Sun 08:23:22 AM 33.7336 -84.0239 210° Southwest 287 330 7,700 -1,100 Descending Atlanta Center
Sun 08:25:09 AM 33.6333 -84.1167 218° Southwest 235 270 5,500 -1,150 Descending Atlanta TRACON
Sun 08:26:09 AM 33.6333 -84.2000 270° West 235 270 4,500 -1,143 Descending Atlanta TRACON
Sun 08:27:15 AM 33.6333 -84.2833 270° West 210 242 3,100 -1,100 Descending Atlanta TRACON
Sun 08:28:09 AM 33.6333 -84.3333 270° West 185 213 2,300 -842 Descending Atlanta TRACON
Sun 08:29:09 AM 33.6333 -84.3833 270° West 157 181 1,500 -800 Descending Atlanta TRACON

Login

Don't have an account? Register now (free) for customized features, flight alerts, and more!